Time;durP1;ratioP1;P1;durP2;ratioP2;P2;SDS_P1;SDS_P2;PMS_P1;PMS_P2;Temp;Humidity;BMP_temperature;BMP_pressure;BME280_temperature;BME280_humidity;BME280_pressure;Samples;Min_cycle;Max_cycle;Signal;HPM_P1;HPM_P2
2021/03/18 00:00:09;;;;;;;10.25;8.00;;;;;;;4.57;92.54;99494.44;5034640;28;20029;-73
2021/03/18 00:02:50;;;;;;;11.25;7.97;;;;;;;4.62;93.99;99492.69;5034479;28;20116;-73
2021/03/18 00:05:24;;;;;;;10.57;7.50;;;;;;;4.47;93.15;99487.00;5034099;28;20036;-74
2021/03/18 00:08:00;;;;;;;9.77;7.13;;;;;;;4.63;93.26;99496.91;5034332;28;20064;-74
2021/03/18 00:10:28;;;;;;;10.50;7.55;;;;;;;4.56;92.39;99487.72;5034555;28;20040;-74
2021/03/18 00:12:55;;;;;;;10.32;7.22;;;;;;;4.61;92.23;99495.25;5033301;28;20718;-74
2021/03/18 00:15:35;;;;;;;11.25;7.75;;;;;;;4.71;92.13;99490.09;5033004;28;20021;-74
2021/03/18 00:18:11;;;;;;;9.95;7.15;;;;;;;4.70;93.02;99495.13;5032978;28;20514;-74
2021/03/18 00:20:37;;;;;;;10.65;7.35;;;;;;;4.55;93.68;99500.34;5033146;28;20514;-74
2021/03/18 00:23:12;;;;;;;12.52;8.02;;;;;;;4.66;92.53;99496.84;5032644;28;20091;-73
2021/03/18 00:25:39;;;;;;;11.75;7.75;;;;;;;4.53;92.33;99491.97;5033863;28;20033;-74
2021/03/18 00:28:05;;;;;;;10.75;7.68;;;;;;;4.71;92.00;99501.81;5032880;28;20026;-73
2021/03/18 00:30:36;;;;;;;9.25;6.45;;;;;;;4.46;93.70;99498.75;5033753;28;20159;-73
2021/03/18 00:33:28;;;;;;;7.03;4.88;;;;;;;4.53;92.89;99510.44;5033154;28;20026;-73
2021/03/18 00:36:03;;;;;;;;;;;;;;;4.39;94.40;99509.75;5032992;28;20400;-74
2021/03/18 00:38:35;;;;;;;9.20;6.40;;;;;;;4.40;93.83;99507.22;5033747;28;20409;-73
2021/03/18 00:41:10;;;;;;;9.20;5.68;;;;;;;4.42;93.87;99512.22;5032421;28;20129;-74
2021/03/18 00:43:40;;;;;;;8.02;5.75;;;;;;;4.40;93.31;99516.44;5032577;28;20120;-74
2021/03/18 00:46:36;;;;;;;7.45;5.25;;;;;;;4.46;94.73;99516.38;5032242;28;20120;-74
2021/03/18 00:49:35;;;;;;;8.10;5.63;;;;;;;4.42;93.31;99519.75;5033707;28;20065;-74
2021/03/18 00:52:00;;;;;;;7.70;5.03;;;;;;;4.50;92.86;99507.13;5032655;28;20046;-74
2021/03/18 00:54:42;;;;;;;7.32;4.97;;;;;;;4.12;94.34;99502.50;5032747;28;20036;-74
2021/03/18 00:57:28;;;;;;;6.35;4.38;;;;;;;4.29;94.45;99505.66;5033726;28;20031;-73
2021/03/18 00:59:53;;;;;;;6.57;4.65;;;;;;;4.34;94.38;99511.47;5032382;28;20521;-73
2021/03/18 01:02:19;;;;;;;5.47;4.10;;;;;;;4.44;92.62;99508.00;5032059;28;20041;-73
2021/03/18 01:04:57;;;;;;;5.40;4.10;;;;;;;4.54;93.60;99508.72;5033257;28;20083;-73
2021/03/18 01:07:22;;;;;;;5.57;3.88;;;;;;;4.38;92.51;99513.09;5031976;28;20400;-74
2021/03/18 01:09:56;;;;;;;5.68;3.78;;;;;;;4.35;92.41;99508.13;5033173;28;20083;-73
2021/03/18 01:12:27;;;;;;;5.93;4.10;;;;;;;4.26;92.99;99508.19;5033012;28;20024;-73
2021/03/18 01:15:00;;;;;;;6.47;4.57;;;;;;;4.37;92.88;99511.44;5032121;28;20514;-73
2021/03/18 01:17:37;;;;;;;6.15;4.40;;;;;;;4.17;93.51;99511.66;5032783;28;20025;-74
2021/03/18 01:20:08;;;;;;;6.28;4.50;;;;;;;4.03;93.88;99498.38;5031973;28;20541;-73
2021/03/18 01:22:46;;;;;;;7.40;4.53;;;;;;;4.19;94.16;99506.59;5032894;28;20061;-74
2021/03/18 01:25:28;;;;;;;7.10;4.60;;;;;;;4.29;92.35;99513.22;5032563;28;20025;-74
2021/03/18 01:27:54;;;;;;;8.35;5.50;;;;;;;4.25;93.27;99504.88;5032882;28;20025;-73
2021/03/18 01:30:39;;;;;;;7.57;5.35;;;;;;;4.32;92.67;99514.00;5032952;28;20058;-74
2021/03/18 01:33:52;;;;;;;6.28;4.68;;;;;;;4.22;94.14;99514.09;5032888;28;20044;-74
2021/03/18 01:36:29;;;;;;;7.38;4.70;;;;;;;4.21;93.12;99525.88;5032636;28;20106;-74
2021/03/18 01:39:05;;;;;;;7.50;5.18;;;;;;;4.22;94.58;99519.13;5032922;28;20052;-74
2021/03/18 01:41:48;;;;;;;8.07;4.93;;;;;;;4.32;93.25;99519.03;5032389;28;20483;-73
2021/03/18 01:44:42;;;;;;;6.95;4.50;;;;;;;4.31;92.98;99519.91;5032500;28;20483;-74
2021/03/18 01:47:24;;;;;;;6.90;4.80;;;;;;;4.50;93.44;99525.56;5032532;28;20415;-73
2021/03/18 01:49:50;;;;;;;;;;;;;;;4.45;92.62;99527.28;5033318;28;20680;-74
2021/03/18 01:52:32;;;;;;;6.22;4.10;;;;;;;4.45;92.85;99529.81;5032389;28;20383;-74
2021/03/18 01:55:34;;;;;;;5.75;3.97;;;;;;;4.46;91.06;99533.16;5032317;28;20495;-74
2021/03/18 01:58:32;;;;;;;5.07;3.55;;;;;;;4.36;92.07;99539.97;5032352;28;20037;-74
2021/03/18 02:01:12;;;;;;;5.70;4.38;;;;;;;4.31;92.68;99544.22;5030853;28;20043;-73
2021/03/18 02:03:53;;;;;;;5.00;4.10;;;;;;;4.35;92.54;99540.81;5031981;28;20383;-73
2021/03/18 02:06:35;;;;;;;5.30;4.18;;;;;;;4.46;92.12;99545.75;5031052;28;20116;-73
2021/03/18 02:09:05;;;;;;;;;;;;;;;4.53;92.76;99554.88;5031411;28;20515;-73
2021/03/18 02:11:33;;;;;;;5.75;3.97;;;;;;;4.29;92.08;99554.31;5030950;28;20014;-74
2021/03/18 02:14:03;;;;;;;5.53;3.92;;;;;;;4.29;92.43;99559.34;5031422;28;20032;-73
2021/03/18 02:16:39;;;;;;;4.97;3.60;;;;;;;4.29;93.15;99553.47;5031285;28;20018;-73
2021/03/18 02:26:08;;;;;;;6.33;3.90;;;;;;;4.33;92.74;99563.47;5031792;28;20040;-73
2021/03/18 02:28:34;;;;;;;5.65;4.30;;;;;;;4.43;93.88;99565.91;5030552;28;20253;-73
2021/03/18 02:31:29;;;;;;;6.82;4.63;;;;;;;4.48;92.96;99575.06;5031526;28;20044;-73
2021/03/18 02:34:11;;;;;;;6.20;4.75;;;;;;;4.61;91.49;99571.59;5030556;28;20033;-73
2021/03/18 02:36:51;;;;;;;6.78;5.00;;;;;;;4.42;91.91;99570.09;5030800;28;20044;-73
2021/03/18 02:39:43;;;;;;;5.57;4.47;;;;;;;4.48;92.16;99582.59;5031731;28;20744;-74
2021/03/18 02:42:20;;;;;;;;;;;;;;;4.30;92.25;99585.28;5032248;28;20029;-73
2021/03/18 02:44:51;;;;;;;6.35;4.25;;;;;;;4.36;93.25;99581.03;5030434;28;19913;-73
2021/03/18 02:47:21;;;;;;;6.22;4.22;;;;;;;4.40;93.16;99569.28;5030191;28;20087;-73
2021/03/18 02:49:50;;;;;;;6.38;4.45;;;;;;;4.35;91.50;99578.56;5031854;28;20030;-74
2021/03/18 02:52:31;;;;;;;5.63;3.88;;;;;;;4.13;93.31;99582.94;5031480;28;20061;-74
2021/03/18 02:55:06;;;;;;;6.63;4.38;;;;;;;4.24;94.22;99593.75;5031490;28;20419;-74
2021/03/18 02:57:37;;;;;;;6.70;4.25;;;;;;;4.25;92.51;99585.38;5030304;28;20384;-74
2021/03/18 03:00:13;;;;;;;6.17;4.33;;;;;;;4.53;92.53;99597.66;5031373;28;20030;-73
2021/03/18 03:03:03;;;;;;;5.63;4.00;;;;;;;4.49;91.24;99596.88;5031560;28;20026;-74
2021/03/18 03:05:32;;;;;;;7.57;5.03;;;;;;;4.31;92.73;99597.03;5030239;28;20096;-74
2021/03/18 03:08:22;;;;;;;9.68;5.45;;;;;;;4.42;92.37;99599.47;5031387;28;20106;-74
2021/03/18 03:11:08;;;;;;;8.10;5.13;;;;;;;4.20;93.77;99598.81;5030197;28;20045;-74
2021/03/18 03:13:39;;;;;;;8.23;5.30;;;;;;;4.45;92.21;99607.81;5031398;28;20026;-74
2021/03/18 03:16:20;;;;;;;7.93;4.82;;;;;;;4.44;92.16;99592.75;5031188;28;20072;-73
2021/03/18 03:19:03;;;;;;;6.68;4.43;;;;;;;4.76;92.19;99601.63;5029924;28;20453;-74
2021/03/18 03:21:30;;;;;;;8.32;4.93;;;;;;;4.68;90.85;99603.38;5025564;28;20080;-73
2021/03/18 03:23:58;;;;;;;7.43;4.40;;;;;;;4.69;92.13;99606.72;5031191;28;20227;-73
2021/03/18 03:26:27;;;;;;;6.60;4.13;;;;;;;4.57;90.72;99599.31;5030012;28;20060;-73
2021/03/18 03:29:03;;;;;;;6.47;4.43;;;;;;;4.57;92.11;99605.19;5031059;28;20113;-74
2021/03/18 03:31:43;;;;;;;6.18;4.30;;;;;;;4.75;89.87;99594.94;5030047;28;20410;-73
2021/03/18 03:34:13;;;;;;;5.65;4.10;;;;;;;4.52;91.33;99614.44;5029977;28;20030;-74
2021/03/18 03:36:46;;;;;;;6.55;4.20;;;;;;;4.70;90.55;99611.75;5031132;28;20031;-73
2021/03/18 03:39:25;;;;;;;5.47;4.03;;;;;;;4.72;90.10;99614.25;5030352;28;20033;-73
2021/03/18 03:42:11;;;;;;;5.25;4.13;;;;;;;4.54;91.11;99615.25;5030911;28;20026;-74
2021/03/18 03:44:38;;;;;;;5.68;4.10;;;;;;;4.60;90.76;99600.09;5030881;28;20037;-73
2021/03/18 03:47:08;;;;;;;7.32;4.28;;;;;;;4.78;89.29;99615.00;5031114;28;20033;-73
2021/03/18 03:49:37;;;;;;;7.32;4.40;;;;;;;4.51;92.00;99614.47;5035157;28;20029;-73
2021/03/18 03:52:20;;;;;;;5.82;4.18;;;;;;;4.70;90.28;99610.91;5033230;28;20041;-73
2021/03/18 03:55:29;;;;;;;7.75;5.00;;;;;;;4.65;90.94;99610.97;5034512;28;20034;-73
2021/03/18 04:01:31;;;;;;;8.82;5.63;;;;;;;4.65;89.94;99616.00;5034589;28;20349;-73
2021/03/18 04:04:06;;;;;;;7.57;5.25;;;;;;;4.75;91.15;99632.69;5034318;28;20487;-73
2021/03/18 04:09:53;;;;;;;7.75;5.25;;;;;;;4.92;88.75;99633.34;5034572;28;20067;-73
2021/03/18 04:12:37;;;;;;;8.20;5.10;;;;;;;4.72;89.13;99637.75;5032968;28;20036;-73
2021/03/18 04:15:12;;;;;;;22.30;12.35;;;;;;;4.88;90.16;99631.69;5033239;28;20022;-73
2021/03/18 04:17:53;;;;;;;138.35;78.30;;;;;;;4.69;90.12;99630.22;5034018;28;20503;-73
2021/03/18 04:20:26;;;;;;;52.95;25.75;;;;;;;4.90;89.37;99640.06;5032698;28;20044;-73
2021/03/18 04:23:02;;;;;;;88.53;40.03;;;;;;;4.65;90.29;99633.63;5033724;28;20057;-73
2021/03/18 04:25:36;;;;;;;49.17;21.30;;;;;;;4.55;92.64;99647.16;5033059;28;20112;-73
2021/03/18 04:28:09;;;;;;;25.50;13.07;;;;;;;4.80;90.01;99646.03;5032869;28;20513;-74
2021/03/18 04:30:39;;;;;;;20.02;11.13;;;;;;;4.85;90.88;99646.00;5032773;28;20483;-73
2021/03/18 04:33:05;;;;;;;13.30;7.15;;;;;;;4.92;91.00;99650.97;5033978;28;20029;-73
2021/03/18 04:35:42;;;;;;;12.50;7.82;;;;;;;4.81;90.09;99656.97;5033754;28;20033;-73
2021/03/18 04:38:25;;;;;;;12.93;7.90;;;;;;;4.75;91.08;99652.81;5033711;28;20113;-74
2021/03/18 04:40:57;;;;;;;15.25;8.60;;;;;;;5.00;89.33;99655.91;5033751;28;20083;-73
2021/03/18 04:43:24;;;;;;;;;;;;;;;4.82;89.62;99666.16;5033806;28;20049;-74
2021/03/18 04:46:00;;;;;;;9.02;6.13;;;;;;;4.63;91.13;99665.53;5031373;28;19913;-74
2021/03/18 04:48:28;;;;;;;13.02;8.35;;;;;;;4.95;90.04;99663.50;5033349;28;20479;-73
2021/03/18 04:51:01;;;;;;;29.45;19.52;;;;;;;5.14;88.71;99664.16;5032200;28;20475;-74
2021/03/18 04:53:33;;;;;;;24.50;16.83;;;;;;;5.13;88.16;99663.31;5032475;28;20112;-73
2021/03/18 04:56:08;;;;;;;24.50;16.38;;;;;;;5.04;89.99;99668.47;5032350;28;20026;-73
2021/03/18 04:58:36;;;;;;;19.15;14.23;;;;;;;4.91;91.80;99676.16;5031803;28;20087;-73
2021/03/18 05:01:02;;;;;;;21.40;15.20;;;;;;;4.87;91.05;99682.88;5036705;28;20021;-79
2021/03/18 05:03:41;;;;;;;18.08;12.38;;;;;;;4.94;91.61;99669.41;5035307;28;20471;-78
2021/03/18 05:06:09;;;;;;;23.58;14.88;;;;;;;4.91;91.29;99661.88;5033560;28;20021;-79
2021/03/18 05:08:40;;;;;;;29.40;19.27;;;;;;;4.94;92.06;99686.19;5032782;28;20028;-81
2021/03/18 05:11:06;;;;;;;26.30;18.60;;;;;;;5.02;91.80;99671.84;5033409;28;20092;-80
2021/03/18 05:13:50;;;;;;;24.00;16.23;;;;;;;4.93;92.29;99682.84;5032525;28;20025;-80
2021/03/18 05:16:36;;;;;;;33.33;20.65;;;;;;;5.06;91.05;99678.50;5032852;28;20029;-80
2021/03/18 05:19:12;;;;;;;52.95;34.47;;;;;;;4.91;92.93;99686.25;5032413;28;20120;-79
2021/03/18 05:21:39;;;;;;;47.30;32.22;;;;;;;4.83;91.29;99683.75;5032248;28;20140;-80
2021/03/18 05:24:13;;;;;;;37.80;26.35;;;;;;;4.84;91.62;99687.97;5033244;28;20056;-80
2021/03/18 05:26:46;;;;;;;38.13;26.92;;;;;;;4.89;92.47;99676.16;5033412;28;20064;-81
2021/03/18 05:29:20;;;;;;;39.38;28.58;;;;;;;4.87;92.42;99680.38;5033357;28;20495;-81
2021/03/18 05:32:07;;;;;;;36.90;27.90;;;;;;;4.98;92.51;99693.72;5032233;28;20458;-80
2021/03/18 05:34:48;;;;;;;33.55;25.38;;;;;;;4.98;93.45;99691.19;5032383;28;20033;-80
2021/03/18 05:37:40;;;;;;;35.13;25.63;;;;;;;4.90;93.25;99699.66;5033339;28;20507;-80
2021/03/18 05:40:10;;;;;;;31.13;22.20;;;;;;;5.05;92.29;99682.72;5033284;28;20029;-81
2021/03/18 05:46:09;;;;;;;25.83;17.85;;;;;;;4.83;93.99;99706.44;5033018;28;20044;-81
2021/03/18 05:48:42;;;;;;;25.77;17.92;;;;;;;5.38;90.64;99708.38;5033086;28;20475;-81
2021/03/18 05:51:14;;;;;;;28.63;20.33;;;;;;;5.14;92.60;99710.34;5031790;28;20103;-81
2021/03/18 05:53:51;;;;;;;29.75;20.35;;;;;;;5.15;91.44;99726.28;5033022;28;20038;-82
2021/03/18 05:56:27;;;;;;;28.08;19.40;;;;;;;4.87;93.52;99720.66;5032838;28;20022;-80
2021/03/18 05:58:53;;;;;;;26.27;20.13;;;;;;;5.04;93.42;99716.31;5032620;28;20029;-80
2021/03/18 06:01:32;;;;;;;25.13;18.83;;;;;;;5.04;92.13;99723.03;5032838;28;20025;-80
2021/03/18 06:04:48;;;;;;;31.58;23.02;;;;;;;5.10;92.55;99728.00;5032298;28;20164;-81
2021/03/18 06:07:20;;;;;;;26.85;17.42;;;;;;;5.14;92.37;99730.50;5032314;28;20085;-80
2021/03/18 06:09:45;;;;;;;22.17;16.67;;;;;;;5.19;92.76;99736.28;5031252;28;20033;-80
2021/03/18 06:12:47;;;;;;;24.75;18.40;;;;;;;5.21;93.71;99743.84;5031041;28;20414;-79
2021/03/18 06:15:35;;;;;;;24.67;17.85;;;;;;;5.44;92.35;99738.56;5031318;28;20033;-81
2021/03/18 06:21:44;;;;;;;24.60;16.25;;;;;;;5.30;90.93;99748.78;5031934;28;20430;-81
2021/03/18 06:24:11;;;;;;;23.50;17.17;;;;;;;4.97;92.30;99754.97;5047318;28;20040;-83
2021/03/18 06:26:39;;;;;;;27.90;18.40;;;;;;;5.17;91.13;99757.31;5033942;28;20025;-81
2021/03/18 06:32:37;;;;;;;28.02;19.75;;;;;;;5.27;92.55;99756.38;5032340;28;20479;-80
2021/03/18 06:35:05;;;;;;;32.40;21.67;;;;;;;5.57;90.42;99761.09;5032251;28;20036;-82
2021/03/18 06:37:43;;;;;;;34.10;24.33;;;;;;;5.64;88.97;99749.25;5032620;28;20112;-82
2021/03/18 06:40:47;;;;;;;39.50;25.10;;;;;;;5.56;91.17;99777.06;5032308;28;20040;-82
2021/03/18 06:43:40;;;;;;;49.50;32.45;;;;;;;5.65;90.49;99773.59;5031126;28;20075;-80
2021/03/18 06:46:18;;;;;;;31.35;23.05;;;;;;;5.61;90.02;99780.38;5031109;28;20436;-82
2021/03/18 06:49:13;;;;;;;22.95;15.68;;;;;;;5.61;88.96;99772.81;5030830;28;20049;-78
2021/03/18 06:51:42;;;;;;;23.65;15.40;;;;;;;5.79;90.44;99784.34;5031753;28;20030;-82
2021/03/18 06:54:22;;;;;;;25.02;16.63;;;;;;;5.68;90.88;99778.63;5032190;28;20279;-78
2021/03/18 06:57:00;;;;;;;32.13;21.13;;;;;;;5.97;89.61;99786.69;5030662;28;20037;-76
2021/03/18 06:59:31;;;;;;;30.42;19.90;;;;;;;6.25;87.91;99787.16;5031940;28;20026;-77
2021/03/18 07:02:06;;;;;;;25.35;16.50;;;;;;;6.36;87.68;99786.16;4668162;28;9999845;-78
2021/03/18 07:04:40;;;;;;;22.55;15.18;;;;;;;6.23;88.79;99788.88;5005885;28;20026;-77
2021/03/18 07:07:09;;;;;;;19.83;13.82;;;;;;;5.92;89.75;99779.16;5005520;28;20036;-76
2021/03/18 07:09:36;;;;;;;20.33;13.00;;;;;;;6.29;88.03;99779.53;5005566;28;20487;-77
2021/03/18 07:12:08;;;;;;;19.52;14.52;;;;;;;6.72;87.83;99775.50;5000633;28;20069;-75
2021/03/18 07:14:50;;;;;;;43.55;29.27;;;;;;;6.72;86.85;99783.09;5002651;28;20522;-77
2021/03/18 07:17:18;;;;;;;;;;;;;;;6.60;86.55;99779.91;5006480;28;20173;-78
2021/03/18 07:20:17;;;;;;;40.60;24.83;;;;;;;6.55;87.34;99786.72;5006372;28;20291;-78
2021/03/18 07:22:46;;;;;;;43.88;28.05;;;;;;;6.48;87.37;99777.56;5006548;28;20491;-78
2021/03/18 07:25:14;;;;;;;26.17;18.83;;;;;;;6.87;85.59;99792.13;5009479;28;20049;-77
2021/03/18 07:27:44;;;;;;;20.55;14.02;;;;;;;6.81;84.33;99774.53;5011363;28;20025;-77
2021/03/18 07:30:22;;;;;;;19.70;14.07;;;;;;;6.79;85.68;99797.28;5011313;28;20033;-79
2021/03/18 07:32:54;;;;;;;19.98;12.85;;;;;;;6.59;85.68;99779.09;5009909;28;20022;-76
2021/03/18 07:35:22;;;;;;;19.00;12.55;;;;;;;6.80;85.10;99790.53;5010005;28;20018;-74
2021/03/18 07:37:49;;;;;;;19.20;14.02;;;;;;;6.93;85.60;99794.56;5009643;28;20034;-75
2021/03/18 07:40:20;;;;;;;21.13;13.95;;;;;;;6.96;83.79;99771.75;5010909;28;20149;-77
2021/03/18 07:42:57;;;;;;;21.83;14.85;;;;;;;7.24;81.84;99794.84;5010525;28;20044;-77
2021/03/18 07:45:25;;;;;;;10.95;7.82;;;;;;;6.99;80.44;99800.31;5009799;28;20149;-77
2021/03/18 07:47:52;;;;;;;9.95;6.95;;;;;;;7.41;79.24;99793.69;5009066;28;20036;-77
2021/03/18 07:50:26;;;;;;;19.15;13.02;;;;;;;7.43;80.85;99770.88;5010255;28;20112;-76
2021/03/18 07:52:53;;;;;;;16.35;11.90;;;;;;;7.60;81.37;99797.56;5010835;28;20479;-76
2021/03/18 07:55:21;;;;;;;18.02;12.02;;;;;;;7.19;80.15;99797.44;5010287;28;20029;-77
2021/03/18 07:57:50;;;;;;;16.67;11.15;;;;;;;7.28;78.83;99783.81;5010407;28;20026;-77
2021/03/18 08:00:20;;;;;;;25.20;15.52;;;;;;;7.25;80.40;99799.88;5010051;28;20468;-76
2021/03/18 08:02:46;;;;;;;14.18;10.52;;;;;;;7.55;82.66;99803.53;5028156;28;20503;-77
2021/03/18 08:05:12;;;;;;;13.80;9.70;;;;;;;7.32;80.12;99798.91;5028648;28;20025;-76
2021/03/18 08:07:49;;;;;;;14.80;11.15;;;;;;;8.25;81.86;99808.91;5028932;28;20064;-76
2021/03/18 08:10:22;;;;;;;10.82;8.50;;;;;;;7.67;78.61;99805.84;5028445;28;20636;-76
2021/03/18 08:13:00;;;;;;;13.85;8.73;;;;;;;7.42;79.01;99805.47;5029544;28;20156;-77
2021/03/18 08:15:30;;;;;;;16.45;9.68;;;;;;;8.12;78.85;99809.97;5028186;28;20454;-78
2021/03/18 08:18:16;;;;;;;12.07;9.30;;;;;;;7.63;80.15;99815.19;5029167;28;20445;-78
2021/03/18 08:21:10;;;;;;;9.90;7.60;;;;;;;7.99;78.40;99807.75;5028120;28;20095;-78
2021/03/18 08:23:38;;;;;;;13.13;6.95;;;;;;;8.40;76.77;99816.16;5028818;28;20128;-76
2021/03/18 08:26:33;;;;;;;9.85;7.00;;;;;;;8.53;74.19;99797.31;5028688;28;20029;-78
2021/03/18 08:29:03;;;;;;;11.32;8.25;;;;;;;8.48;77.04;99808.38;5029307;28;20065;-77
2021/03/18 08:31:53;;;;;;;7.10;5.32;;;;;;;7.95;74.80;99814.56;5029988;28;20171;-77
2021/03/18 08:34:44;;;;;;;9.32;8.25;;;;;;;8.50;74.78;99810.03;5010699;28;20487;-77
2021/03/18 08:37:11;;;;;;;5.97;4.75;;;;;;;8.72;73.78;99808.69;5008539;28;20056;-79
2021/03/18 08:39:52;;;;;;;7.25;5.30;;;;;;;8.45;74.22;99809.31;5008229;28;20045;-77
2021/03/18 08:42:39;;;;;;;12.63;7.78;;;;;;;8.55;73.53;99779.53;5008064;28;20030;-78
2021/03/18 08:45:24;;;;;;;5.82;4.60;;;;;;;8.12;72.29;99811.69;5009198;28;20034;-78
2021/03/18 08:47:52;;;;;;;4.70;3.45;;;;;;;8.45;70.57;99818.59;5009126;28;20026;-78
2021/03/18 08:50:28;;;;;;;5.00;4.05;;;;;;;8.80;71.43;99815.25;5007908;28;20132;-78
2021/03/18 08:52:55;;;;;;;18.42;9.00;;;;;;;8.62;73.00;99811.44;5007011;28;20030;-77
2021/03/18 08:55:45;;;;;;;9.60;6.80;;;;;;;8.85;70.38;99824.44;4989197;28;20038;-78
2021/03/18 08:58:14;;;;;;;11.38;6.60;;;;;;;9.02;69.70;99826.56;4988950;28;20038;-79
2021/03/18 09:00:42;;;;;;;6.50;5.20;;;;;;;8.94;71.63;99818.31;4992031;28;20041;-78
2021/03/18 09:03:15;;;;;;;17.90;11.38;;;;;;;9.15;71.35;99818.59;5028279;28;20512;-78
2021/03/18 09:05:56;;;;;;;10.13;6.80;;;;;;;8.63;69.42;99824.09;5027976;28;20030;-77
2021/03/18 09:08:27;;;;;;;16.00;9.25;;;;;;;9.01;70.54;99818.16;5009466;28;20022;-78
2021/03/18 09:10:53;;;;;;;9.80;6.60;;;;;;;8.95;71.32;99819.97;5006284;28;20495;-78
2021/03/18 09:13:22;;;;;;;9.48;6.95;;;;;;;9.14;70.02;99805.97;5008363;28;20125;-78
2021/03/18 09:15:52;;;;;;;9.00;7.05;;;;;;;8.99;71.35;99822.41;5008221;28;20041;-79
2021/03/18 09:18:18;;;;;;;29.77;18.70;;;;;;;8.54;71.19;99826.81;5009178;28;20030;-79
2021/03/18 09:21:04;;;;;;;15.63;10.13;;;;;;;8.60;72.38;99834.28;5008016;28;20036;-80
2021/03/18 09:23:37;;;;;;;14.77;9.82;;;;;;;8.71;72.03;99811.25;5006905;28;20068;-79
2021/03/18 09:26:07;;;;;;;9.38;7.28;;;;;;;8.57;70.98;99829.31;5008699;28;20104;-79
2021/03/18 09:28:35;;;;;;;38.92;26.17;;;;;;;8.16;71.72;99831.84;5008283;28;20034;-78
2021/03/18 09:31:28;;;;;;;8.82;5.55;;;;;;;8.73;70.19;99830.59;5006867;28;20058;-78
2021/03/18 09:33:55;;;;;;;13.75;8.80;;;;;;;9.01;69.27;99814.75;5008413;28;20577;-78
2021/03/18 09:36:25;;;;;;;18.20;12.70;;;;;;;8.82;71.34;99821.13;5006574;28;20026;-76
2021/03/18 09:39:10;;;;;;;6.40;4.53;;;;;;;8.92;69.79;99812.44;5007929;28;20447;-78
2021/03/18 09:41:51;;;;;;;6.63;4.40;;;;;;;8.57;70.07;99829.31;5007724;28;20411;-77
2021/03/18 09:44:22;;;;;;;5.10;4.28;;;;;;;9.06;69.48;99813.78;5007599;28;20026;-77
2021/03/18 09:47:06;;;;;;;4.85;3.63;;;;;;;8.89;69.76;99826.03;5008281;28;20022;-76
2021/03/18 09:49:35;;;;;;;7.38;4.85;;;;;;;8.90;69.22;99829.38;5007581;28;20034;-77
2021/03/18 09:52:08;;;;;;;9.55;7.30;;;;;;;9.28;70.49;99834.34;5008071;28;20038;-80
2021/03/18 09:54:38;;;;;;;7.50;5.97;;;;;;;9.28;70.25;99844.50;5007825;28;20040;-80
2021/03/18 09:57:08;;;;;;;8.70;6.13;;;;;;;9.17;70.00;99838.88;5007579;28;20498;-80
2021/03/18 09:59:39;;;;;;;9.27;6.80;;;;;;;9.24;69.80;99827.69;5007328;28;20514;-79
2021/03/18 10:02:07;;;;;;;8.68;7.20;;;;;;;9.61;68.04;99844.47;5023919;28;20055;-79
2021/03/18 10:04:42;;;;;;;9.68;7.32;;;;;;;9.29;67.86;99838.56;5026835;28;20124;-78
2021/03/18 10:07:11;;;;;;;7.35;5.50;;;;;;;9.68;66.90;99836.69;5026806;28;20017;-80
2021/03/18 10:09:44;;;;;;;32.00;17.08;;;;;;;9.09;69.34;99836.50;5031636;28;20030;-78
2021/03/18 10:12:13;;;;;;;17.77;8.40;;;;;;;9.02;70.01;99844.31;5026873;28;20057;-78
2021/03/18 10:14:50;;;;;;;19.83;9.63;;;;;;;9.06;69.89;99845.91;5026211;28;20096;-77
2021/03/18 10:17:28;;;;;;;24.52;12.02;;;;;;;9.12;69.78;99823.78;5026812;28;20799;-77
2021/03/18 10:20:21;;;;;;;13.38;9.10;;;;;;;8.92;68.96;99850.44;5026001;28;20483;-81
2021/03/18 10:23:02;;;;;;;5.90;4.38;;;;;;;8.85;68.36;99838.81;5025273;28;20580;-80
2021/03/18 10:25:35;;;;;;;4.90;4.10;;;;;;;9.01;69.71;99845.19;5025464;28;20049;-78
2021/03/18 10:28:09;;;;;;;27.75;11.63;;;;;;;9.02;68.87;99835.00;5027014;28;20055;-77
2021/03/18 10:30:46;;;;;;;13.00;6.60;;;;;;;9.12;68.82;99833.91;5026654;28;20048;-77
2021/03/18 10:33:17;;;;;;;43.65;15.20;;;;;;;9.39;70.44;99850.13;5027377;28;20026;-79
2021/03/18 10:35:54;;;;;;;13.40;8.40;;;;;;;9.82;69.92;99854.94;5026176;28;20038;-76
2021/03/18 10:38:32;;;;;;;8.60;5.20;;;;;;;9.66;68.29;99843.53;5024891;28;20190;-78
2021/03/18 10:41:03;;;;;;;59.17;17.98;;;;;;;9.68;66.41;99854.47;5024861;28;20156;-80
2021/03/18 10:43:39;;;;;;;5.88;4.30;;;;;;;9.63;65.39;99843.63;5025874;28;20029;-77
2021/03/18 10:46:09;;;;;;;10.07;6.15;;;;;;;10.39;65.67;99855.88;5025815;28;20171;-76
2021/03/18 10:48:36;;;;;;;8.23;5.70;;;;;;;10.05;65.57;99843.28;5026511;28;20041;-77
2021/03/18 10:51:11;;;;;;;7.15;5.47;;;;;;;10.30;65.69;99846.00;5025097;28;20103;-78
2021/03/18 10:53:39;;;;;;;7.03;5.20;;;;;;;10.13;65.37;99826.16;5026691;28;20061;-78
2021/03/18 10:56:09;;;;;;;6.47;4.80;;;;;;;10.09;65.41;99836.41;5026253;28;20034;-79
2021/03/18 10:58:35;;;;;;;7.75;5.75;;;;;;;10.37;67.27;99850.84;5027170;28;20139;-78
2021/03/18 11:01:02;;;;;;;31.75;12.32;;;;;;;9.74;66.83;99844.16;5022234;28;20041;-78
2021/03/18 11:03:30;;;;;;;9.05;6.00;;;;;;;9.35;66.79;99824.00;5006606;28;20538;-78
2021/03/18 11:06:24;;;;;;;7.47;5.47;;;;;;;9.57;66.45;99842.06;5007372;28;20030;-79
2021/03/18 11:08:53;;;;;;;9.27;6.07;;;;;;;9.16;68.04;99843.09;5006476;28;20046;-80
2021/03/18 11:11:28;;;;;;;6.85;5.53;;;;;;;9.33;66.11;99835.09;5007403;28;20030;-77
2021/03/18 11:14:13;;;;;;;6.13;5.00;;;;;;;9.63;65.98;99843.63;5006121;28;20038;-78
2021/03/18 11:16:41;;;;;;;8.38;6.25;;;;;;;9.13;70.72;99840.63;5007610;28;20038;-81
2021/03/18 11:19:12;;;;;;;8.30;6.82;;;;;;;9.02;71.34;99827.41;5006385;28;20022;-80
2021/03/18 11:21:40;;;;;;;8.43;6.53;;;;;;;8.94;72.40;99841.13;5005411;28;20985;-78
2021/03/18 11:24:08;;;;;;;11.18;8.50;;;;;;;8.84;72.62;99847.25;5010762;28;20065;-78
2021/03/18 11:26:41;;;;;;;6.70;5.10;;;;;;;8.90;69.18;99835.28;5005863;28;20045;-80
2021/03/18 11:29:16;;;;;;;5.38;4.38;;;;;;;8.71;72.78;99841.66;5006891;28;20048;-81
2021/03/18 11:31:55;;;;;;;5.68;4.53;;;;;;;8.60;72.30;99838.53;5005656;28;20033;-77
2021/03/18 11:34:38;;;;;;;11.10;9.35;;;;;;;8.65;71.55;99832.50;5007904;28;20057;-76
2021/03/18 11:37:12;;;;;;;6.10;4.85;;;;;;;9.27;71.26;99830.97;5007253;28;20021;-77
2021/03/18 11:39:43;;;;;;;12.63;10.63;;;;;;;8.84;71.50;99829.53;5006429;28;20149;-77
2021/03/18 11:42:09;;;;;;;16.05;12.05;;;;;;;8.79;72.32;99826.28;5007633;28;20539;-79
2021/03/18 11:44:35;;;;;;;22.08;14.82;;;;;;;8.91;71.99;99819.22;5006679;28;20121;-77
2021/03/18 11:47:05;;;;;;;11.43;7.82;;;;;;;8.87;71.50;99807.50;5006327;28;20132;-78
2021/03/18 11:49:38;;;;;;;10.98;6.72;;;;;;;9.11;68.48;99826.34;5000861;28;20030;-77
2021/03/18 11:52:07;;;;;;;7.80;5.43;;;;;;;9.15;70.12;99817.78;4993217;28;20053;-77
2021/03/18 11:54:36;;;;;;;17.52;9.45;;;;;;;9.43;70.12;99818.75;5005845;28;20033;-77
2021/03/18 11:57:02;;;;;;;9.70;8.07;;;;;;;9.20;69.36;99819.34;5005528;28;20041;-77
2021/03/18 11:59:28;;;;;;;26.10;15.18;;;;;;;9.59;69.72;99818.31;5005498;28;20026;-76
2021/03/18 12:02:02;;;;;;;25.42;13.40;;;;;;;9.65;66.05;99803.81;5006012;28;20037;-77
2021/03/18 12:04:27;;;;;;;28.80;17.45;;;;;;;10.27;65.92;99796.09;5006870;28;20037;-77
2021/03/18 12:06:54;;;;;;;13.65;9.15;;;;;;;10.30;66.80;99803.59;5005319;28;20018;-77
2021/03/18 12:09:28;;;;;;;6.43;5.05;;;;;;;10.59;63.12;99810.38;5007626;28;20056;-76
2021/03/18 12:11:54;;;;;;;6.95;5.90;;;;;;;9.75;64.50;99800.13;5009275;28;20026;-77
2021/03/18 12:14:21;;;;;;;7.43;6.18;;;;;;;10.24;63.94;99808.06;5005392;28;20033;-75
2021/03/18 12:16:46;;;;;;;8.25;6.30;;;;;;;10.67;65.26;99800.78;5009522;28;20036;-77
2021/03/18 12:19:12;;;;;;;7.53;6.05;;;;;;;10.50;64.80;99782.69;5009174;28;20038;-77
2021/03/18 12:21:37;;;;;;;6.45;5.20;;;;;;;10.45;63.58;99805.72;5008468;28;20121;-75
2021/03/18 12:24:03;;;;;;;7.25;5.95;;;;;;;10.68;65.83;99814.31;5008562;28;20037;-78
2021/03/18 12:26:28;;;;;;;5.90;5.10;;;;;;;10.20;66.11;99793.78;5008570;28;20512;-76
2021/03/18 12:29:03;;;;;;;9.27;7.22;;;;;;;10.63;64.79;99817.03;5006985;28;20165;-77
2021/03/18 12:31:42;;;;;;;6.28;5.03;;;;;;;9.61;66.04;99820.78;5008927;28;20038;-76
2021/03/18 12:34:12;;;;;;;8.75;7.00;;;;;;;9.78;68.38;99822.88;5008296;28;20030;-76
2021/03/18 12:36:38;;;;;;;27.73;15.80;;;;;;;9.63;67.91;99827.50;5008295;28;20053;-77